Time;durP1;ratioP1;P1;durP2;ratioP2;P2;SDS_P1;SDS_P2;PMS_P1;PMS_P2;Temp;Humidity;BMP_temperature;BMP_pressure;BME280_temperature;BME280_humidity;BME280_pressure;Samples;Min_cycle;Max_cycle;Signal;HPM_P1;HPM_P2
2023/06/28 00:01:19;;;;;;;11.88;2.75;;;;;;;17.87;67.30;101807.56;7397079;19;20597;-58
2023/06/28 00:03:48;;;;;;;9.38;3.10;;;;;;;17.89;67.39;101802.91;7398155;19;20389;-58
2023/06/28 00:06:15;;;;;;;12.80;3.00;;;;;;;17.83;67.43;101803.44;7396477;19;20015;-59
2023/06/28 00:08:43;;;;;;;11.50;3.22;;;;;;;17.85;67.49;101807.66;7397379;19;20170;-59
2023/06/28 00:11:10;;;;;;;13.95;3.05;;;;;;;17.85;67.57;101806.81;7397253;19;20022;-59
2023/06/28 00:13:37;;;;;;;14.50;3.03;;;;;;;17.85;67.56;101815.72;7397720;19;20192;-59
2023/06/28 00:16:05;;;;;;;13.38;3.00;;;;;;;17.86;67.26;101816.56;7397806;19;20047;-59
2023/06/28 00:18:33;;;;;;;11.50;3.00;;;;;;;17.76;67.70;101808.50;7394354;19;20037;-58
2023/06/28 00:21:01;;;;;;;14.35;3.20;;;;;;;17.69;68.19;101805.47;7396842;19;20022;-59
2023/06/28 00:23:28;;;;;;;13.30;3.00;;;;;;;17.67;68.23;101814.63;7397236;19;20023;-59
2023/06/28 00:25:55;;;;;;;14.23;3.03;;;;;;;17.50;68.55;101810.72;7398006;19;20022;-59
2023/06/28 00:28:23;;;;;;;15.55;3.38;;;;;;;17.50;68.38;101811.56;7396141;19;20039;-59
2023/06/28 00:30:50;;;;;;;10.82;3.17;;;;;;;17.49;68.55;101812.53;7397346;19;20082;-56
2023/06/28 00:33:20;;;;;;;12.38;3.38;;;;;;;17.50;68.77;101816.06;7396919;19;20026;-58
2023/06/28 00:35:49;;;;;;;12.75;3.25;;;;;;;17.54;68.51;101822.84;7396639;19;20022;-56
2023/06/28 00:38:16;;;;;;;12.35;2.83;;;;;;;17.57;68.70;101817.25;7393951;19;20025;-58
2023/06/28 00:40:43;;;;;;;10.73;2.95;;;;;;;17.54;68.97;101820.19;7397322;19;20032;-56
2023/06/28 00:43:12;;;;;;;13.23;3.05;;;;;;;17.52;69.09;101816.81;7393326;19;20035;-58
2023/06/28 00:45:39;;;;;;;10.75;2.90;;;;;;;17.56;68.72;101825.44;7396202;19;20051;-57
2023/06/28 00:48:07;;;;;;;11.35;3.20;;;;;;;17.56;68.78;101817.38;7396023;19;20014;-57
2023/06/28 00:50:36;;;;;;;12.40;3.35;;;;;;;17.37;69.32;101820.78;7396866;19;20015;-58
2023/06/28 00:53:04;;;;;;;12.80;3.38;;;;;;;17.34;69.46;101816.53;7393591;19;20064;-58
2023/06/28 00:55:32;;;;;;;14.93;3.28;;;;;;;17.42;69.04;101823.91;7396571;19;20019;-57
2023/06/28 00:58:00;;;;;;;12.60;3.28;;;;;;;17.39;69.29;101827.69;7394200;19;20018;-58
2023/06/28 01:00:28;;;;;;;10.10;3.22;;;;;;;17.36;69.13;101821.75;7396234;19;20014;-57
2023/06/28 01:02:57;;;;;;;9.15;3.17;;;;;;;17.36;69.02;101822.63;7393605;19;20018;-57
2023/06/28 01:05:24;;;;;;;10.15;3.25;;;;;;;17.29;69.81;101824.97;7396307;19;20022;-57
2023/06/28 01:07:53;;;;;;;10.45;2.97;;;;;;;17.33;69.51;101825.56;7395347;19;20491;-55
2023/06/28 01:10:21;;;;;;;9.13;3.13;;;;;;;17.34;69.07;101821.91;7395358;19;20017;-56
2023/06/28 01:12:49;;;;;;;8.52;3.15;;;;;;;17.28;69.47;101825.09;7393228;19;20015;-56
2023/06/28 01:15:17;;;;;;;10.70;3.28;;;;;;;17.20;69.62;101827.56;7395322;19;20021;-58
2023/06/28 01:17:44;;;;;;;9.63;2.72;;;;;;;17.24;69.87;101827.16;7392944;19;20014;-59
2023/06/28 01:20:12;;;;;;;8.82;3.20;;;;;;;17.20;70.23;101832.91;7394914;19;20018;-59
2023/06/28 01:22:41;;;;;;;8.43;2.97;;;;;;;17.16;70.38;101826.13;7393818;19;20018;-59
2023/06/28 01:25:10;;;;;;;12.30;3.22;;;;;;;17.24;70.17;101835.19;7394709;19;20018;-59
2023/06/28 01:27:44;;;;;;;9.73;2.63;;;;;;;17.34;69.45;101837.13;7395332;19;20039;-57
2023/06/28 01:30:14;;;;;;;;;;;;;;;17.12;70.79;101838.06;7395079;19;20031;-57
2023/06/28 01:32:43;;;;;;;10.18;3.30;;;;;;;17.11;70.43;101831.88;7393484;19;19930;-57
2023/06/28 01:35:14;;;;;;;11.18;3.03;;;;;;;17.16;70.12;101828.81;7393114;19;20523;-57
2023/06/28 01:37:43;;;;;;;12.13;3.10;;;;;;;17.24;69.69;101829.00;7392076;19;20015;-57
2023/06/28 01:40:11;;;;;;;11.68;3.30;;;;;;;17.25;69.83;101833.41;7393872;19;20044;-58
2023/06/28 01:42:40;;;;;;;12.05;3.17;;;;;;;17.16;70.20;101829.66;7392554;19;20038;-58
2023/06/28 01:45:08;;;;;;;11.45;3.38;;;;;;;17.22;69.87;101831.81;7394477;19;20082;-58
2023/06/28 01:47:36;;;;;;;10.13;3.10;;;;;;;17.12;70.46;101844.28;7394172;19;20043;-58
2023/06/28 01:50:05;;;;;;;10.75;3.00;;;;;;;17.11;70.28;101841.75;7392344;19;20096;-57
2023/06/28 01:52:33;;;;;;;10.07;3.20;;;;;;;17.12;70.14;101832.72;7391352;19;20015;-55
2023/06/28 01:55:00;;;;;;;10.93;3.70;;;;;;;17.10;70.18;101842.72;7393748;19;20010;-57
2023/06/28 01:57:28;;;;;;;10.15;3.85;;;;;;;16.96;70.94;101842.03;7393716;19;20026;-57
2023/06/28 01:59:55;;;;;;;13.00;4.13;;;;;;;17.00;70.59;101839.94;7393032;19;20019;-58
2023/06/28 02:02:22;;;;;;;13.13;4.60;;;;;;;16.99;70.89;101841.78;7393411;19;20014;-56
2023/06/28 02:04:50;;;;;;;12.63;4.45;;;;;;;16.97;70.56;101841.03;7394384;19;20025;-56
2023/06/28 02:07:17;;;;;;;13.20;4.60;;;;;;;16.92;71.13;101842.44;7393850;19;20026;-56
2023/06/28 02:09:44;;;;;;;16.40;5.57;;;;;;;17.01;70.92;101842.50;7391512;19;20023;-55
2023/06/28 02:12:12;;;;;;;13.25;4.43;;;;;;;16.98;70.43;101836.53;7390927;19;20043;-58
2023/06/28 02:14:39;;;;;;;13.93;4.93;;;;;;;16.92;70.85;101840.59;7392891;19;20018;-55
2023/06/28 02:17:13;;;;;;;13.60;5.03;;;;;;;16.98;70.81;101833.88;7392223;19;20015;-53
2023/06/28 02:19:42;;;;;;;14.32;4.68;;;;;;;17.01;70.80;101831.78;7392738;19;20488;-56
2023/06/28 02:22:09;;;;;;;13.43;5.25;;;;;;;16.99;70.82;101836.44;7392493;19;20015;-55
2023/06/28 02:24:37;;;;;;;11.48;4.82;;;;;;;16.97;71.06;101834.84;7392774;19;20018;-54
2023/06/28 02:27:04;;;;;;;13.10;5.65;;;;;;;17.01;70.77;101833.63;7391416;19;20023;-56
2023/06/28 02:29:32;;;;;;;12.68;4.85;;;;;;;16.96;70.89;101835.84;7392791;19;20341;-56
2023/06/28 02:31:59;;;;;;;14.48;5.75;;;;;;;16.92;70.89;101831.72;7392164;19;20038;-54
2023/06/28 02:34:27;;;;;;;14.68;5.55;;;;;;;16.98;70.58;101826.72;7392638;19;20035;-54
2023/06/28 02:36:55;;;;;;;15.25;5.05;;;;;;;16.90;71.02;101831.81;7392318;19;20563;-55
2023/06/28 02:39:22;;;;;;;14.20;5.70;;;;;;;16.97;71.19;101827.66;7389005;19;20018;-54
2023/06/28 02:41:50;;;;;;;13.63;5.13;;;;;;;16.86;71.27;101832.22;7390319;19;20031;-54
2023/06/28 02:44:17;;;;;;;15.88;5.60;;;;;;;16.90;71.35;101820.28;7392912;19;20021;-57
2023/06/28 02:46:45;;;;;;;11.13;5.30;;;;;;;16.93;71.19;101828.06;7392828;19;20028;-56
2023/06/28 02:49:12;;;;;;;13.93;5.30;;;;;;;16.89;71.61;101818.59;7392446;19;20017;-56
2023/06/28 02:51:40;;;;;;;14.00;5.50;;;;;;;16.97;70.95;101821.47;7391353;19;20022;-55
2023/06/28 02:54:07;;;;;;;14.88;6.07;;;;;;;16.95;71.05;101821.63;7392398;19;20085;-56
2023/06/28 02:56:34;;;;;;;16.10;5.70;;;;;;;16.91;71.17;101820.16;7392232;19;20059;-56
2023/06/28 02:59:02;;;;;;;15.88;5.32;;;;;;;16.98;71.01;101823.16;7389817;19;20022;-55
2023/06/28 03:01:30;;;;;;;13.68;5.97;;;;;;;16.94;71.14;101821.72;7391031;19;20428;-56
2023/06/28 03:03:57;;;;;;;13.80;5.38;;;;;;;16.94;70.91;101819.91;7392243;19;20014;-55
2023/06/28 03:06:24;;;;;;;12.75;5.30;;;;;;;16.91;70.80;101819.31;7391759;19;20010;-54
2023/06/28 03:08:52;;;;;;;11.60;5.10;;;;;;;16.98;70.90;101820.47;7390742;19;20018;-58
2023/06/28 03:11:19;;;;;;;15.20;5.35;;;;;;;16.90;70.85;101820.28;7390665;19;20018;-58
2023/06/28 03:13:46;;;;;;;14.02;5.15;;;;;;;16.90;71.20;101825.63;7392067;19;20039;-58
2023/06/28 03:16:15;;;;;;;12.25;5.38;;;;;;;16.87;71.08;101821.41;7391354;19;20022;-57
2023/06/28 03:18:42;;;;;;;15.65;5.15;;;;;;;16.84;71.17;101815.47;7389862;19;20022;-58
2023/06/28 03:21:10;;;;;;;14.20;4.68;;;;;;;16.80;71.47;101820.22;7391219;19;20026;-58
2023/06/28 03:23:38;;;;;;;14.65;5.30;;;;;;;16.87;70.97;101823.25;7391400;19;20026;-57
2023/06/28 03:26:05;;;;;;;15.68;5.45;;;;;;;16.90;70.45;101828.31;7391665;19;20010;-58
2023/06/28 03:28:33;;;;;;;12.02;5.43;;;;;;;16.73;71.30;101821.66;7388216;19;20029;-57
2023/06/28 03:31:00;;;;;;;12.85;4.90;;;;;;;16.78;71.21;101824.81;7390251;19;20025;-58
2023/06/28 03:33:27;;;;;;;13.85;5.50;;;;;;;16.89;70.60;101826.63;7390541;19;20077;-58
2023/06/28 03:35:55;;;;;;;13.80;5.10;;;;;;;16.76;70.94;101819.63;7391308;19;20019;-58
2023/06/28 03:38:22;;;;;;;19.15;9.00;;;;;;;16.80;70.69;101815.72;7387460;19;20029;-58
2023/06/28 03:40:49;;;;;;;16.80;7.97;;;;;;;16.88;70.63;101815.06;7390744;19;20018;-57
2023/06/28 03:43:17;;;;;;;14.05;6.57;;;;;;;16.76;70.55;101816.09;7390495;19;20010;-54
2023/06/28 03:45:44;;;;;;;14.68;6.45;;;;;;;16.68;70.95;101818.53;7390520;19;20034;-58
2023/06/28 03:48:11;;;;;;;13.73;5.88;;;;;;;16.77;70.57;101815.97;7390001;19;20015;-58
2023/06/28 03:50:39;;;;;;;12.35;5.63;;;;;;;16.74;70.62;101818.03;7391269;19;20087;-57
2023/06/28 03:53:06;;;;;;;12.93;5.38;;;;;;;16.77;70.26;101817.78;7388709;19;20021;-58
2023/06/28 03:55:34;;;;;;;12.75;5.10;;;;;;;16.74;70.60;101821.56;7390787;19;20019;-58
2023/06/28 03:58:01;;;;;;;13.88;5.28;;;;;;;16.67;70.99;101817.66;7389369;19;20015;-58
2023/06/28 04:00:28;;;;;;;12.52;4.20;;;;;;;16.78;70.79;101814.97;7390348;19;20019;-57
2023/06/28 04:02:56;;;;;;;10.73;4.22;;;;;;;16.78;70.68;101819.47;7388097;19;20510;-56
2023/06/28 04:05:23;;;;;;;10.57;4.95;;;;;;;16.81;70.27;101817.41;7390607;19;20015;-56
2023/06/28 04:07:57;;;;;;;11.75;4.63;;;;;;;16.92;70.05;101821.88;7389989;19;20030;-56
2023/06/28 04:10:25;;;;;;;12.23;3.85;;;;;;;16.97;70.32;101824.16;7389421;19;20561;-56
2023/06/28 04:12:53;;;;;;;10.82;4.05;;;;;;;17.01;69.85;101822.91;7388248;19;20048;-56
2023/06/28 04:15:20;;;;;;;11.13;4.63;;;;;;;16.96;69.90;101817.09;7389934;19;20026;-55
2023/06/28 04:17:48;;;;;;;11.05;4.53;;;;;;;16.94;69.94;101816.38;7389879;19;20059;-57
2023/06/28 04:20:15;;;;;;;14.20;4.20;;;;;;;16.95;70.10;101824.28;7389418;19;20038;-55
2023/06/28 04:22:42;;;;;;;12.77;4.22;;;;;;;17.03;69.80;101819.13;7387393;19;20021;-55
2023/06/28 04:25:10;;;;;;;11.60;4.43;;;;;;;17.14;69.67;101822.75;7389448;19;20043;-56
2023/06/28 04:27:37;;;;;;;10.93;4.18;;;;;;;17.05;69.60;101816.31;7389099;19;20105;-55
2023/06/28 04:30:05;;;;;;;14.48;4.30;;;;;;;17.17;69.31;101822.47;7388883;19;20021;-58
2023/06/28 04:32:32;;;;;;;11.18;4.07;;;;;;;17.14;69.44;101826.28;7388339;19;20483;-57
2023/06/28 04:35:01;;;;;;;11.75;4.25;;;;;;;17.22;69.23;101826.47;7389019;19;20014;-57
2023/06/28 04:37:31;;;;;;;16.83;4.57;;;;;;;17.29;68.84;101824.97;7389897;19;20018;-57
2023/06/28 04:40:00;;;;;;;12.65;3.88;;;;;;;17.29;68.76;101821.44;7384702;19;20039;-56
2023/06/28 04:42:27;;;;;;;14.50;4.25;;;;;;;17.24;68.78;101827.16;7394857;19;20018;-57
2023/06/28 04:44:59;;;;;;;10.38;3.90;;;;;;;17.27;68.63;101826.91;7396186;19;20492;-55
2023/06/28 04:47:28;;;;;;;10.20;4.05;;;;;;;17.20;68.94;101825.72;7397023;19;20015;-56
2023/06/28 04:49:55;;;;;;;12.30;4.53;;;;;;;17.28;68.85;101817.06;7396563;19;20014;-57
2023/06/28 04:52:23;;;;;;;10.43;3.90;;;;;;;17.37;68.52;101823.47;7394193;19;20391;-56
2023/06/28 04:54:51;;;;;;;11.27;4.20;;;;;;;17.50;68.25;101832.13;7396232;19;20085;-56
2023/06/28 04:57:20;;;;;;;12.80;3.83;;;;;;;17.50;68.21;101829.47;7396414;19;20019;-56
2023/06/28 04:59:48;;;;;;;13.55;4.32;;;;;;;17.57;68.30;101832.47;7393045;19;20643;-57
2023/06/28 05:02:15;;;;;;;13.00;4.55;;;;;;;17.61;67.87;101837.41;7394368;19;20022;-56
2023/06/28 05:04:43;;;;;;;12.75;4.05;;;;;;;17.63;67.89;101831.91;7395597;19;20155;-49
2023/06/28 05:07:10;;;;;;;10.35;4.05;;;;;;;17.65;67.90;101830.81;7396116;19;20499;-49
2023/06/28 05:09:41;;;;;;;12.93;4.00;;;;;;;17.74;67.69;101830.03;7394911;19;20056;-48
2023/06/28 05:12:08;;;;;;;11.70;4.07;;;;;;;17.74;67.60;101822.00;7394882;19;20014;-51
2023/06/28 05:14:35;;;;;;;12.15;4.38;;;;;;;17.77;67.47;101828.94;7395041;19;20039;-50
2023/06/28 05:17:03;;;;;;;11.07;4.25;;;;;;;17.71;67.66;101824.94;7395491;19;20019;-54
2023/06/28 05:19:30;;;;;;;12.40;3.50;;;;;;;17.78;67.86;101826.16;7392627;19;20018;-52
2023/06/28 05:21:58;;;;;;;9.10;3.88;;;;;;;17.76;68.24;101819.22;7393927;19;20095;-54
2023/06/28 05:24:25;;;;;;;11.88;4.35;;;;;;;17.76;67.99;101814.69;7393130;19;20039;-56
2023/06/28 05:26:52;;;;;;;12.70;3.88;;;;;;;17.74;68.19;101816.66;7395101;19;20052;-53
2023/06/28 05:29:19;;;;;;;12.85;4.18;;;;;;;17.71;68.77;101816.06;7394519;19;20031;-56
2023/06/28 05:31:47;;;;;;;10.00;3.88;;;;;;;17.74;68.95;101823.81;7393427;19;20019;-56
2023/06/28 05:34:14;;;;;;;9.85;3.78;;;;;;;17.85;68.56;101828.25;7395424;19;20018;-54
2023/06/28 05:36:41;;;;;;;9.73;3.70;;;;;;;17.84;69.06;101818.53;7394918;19;20017;-53
2023/06/28 05:39:09;;;;;;;15.25;4.50;;;;;;;17.96;68.75;101820.13;7392148;19;20029;-55
2023/06/28 05:41:39;;;;;;;11.13;4.05;;;;;;;17.95;68.76;101818.44;7394445;19;20040;-55
2023/06/28 05:44:07;;;;;;;12.85;4.05;;;;;;;17.92;68.92;101813.34;7395374;19;20492;-55
2023/06/28 05:46:34;;;;;;;12.52;3.67;;;;;;;18.00;68.83;101818.88;7394414;19;20022;-58
2023/06/28 05:49:07;;;;;;;11.35;3.50;;;;;;;18.13;68.73;101822.19;7393741;19;20017;-59
2023/06/28 05:51:36;;;;;;;14.27;4.05;;;;;;;18.10;68.88;101818.94;7391462;19;20018;-58
2023/06/28 05:54:04;;;;;;;14.07;3.72;;;;;;;18.22;68.87;101818.69;7391688;19;20391;-58
2023/06/28 05:56:32;;;;;;;12.02;4.20;;;;;;;18.35;68.16;101817.56;7394337;19;20337;-58
2023/06/28 05:58:59;;;;;;;10.95;3.90;;;;;;;18.46;67.99;101809.41;7392981;19;20022;-57
2023/06/28 06:01:28;;;;;;;11.70;3.83;;;;;;;18.44;67.99;101809.56;7391300;19;20018;-58
2023/06/28 06:03:55;;;;;;;12.82;4.47;;;;;;;18.38;68.20;101810.09;7393774;19;20018;-58
2023/06/28 06:06:23;;;;;;;13.48;3.92;;;;;;;18.37;68.08;101808.41;7391972;19;20023;-58
2023/06/28 06:08:50;;;;;;;16.27;4.22;;;;;;;18.33;68.43;101803.47;7393420;19;20049;-58
2023/06/28 06:11:17;;;;;;;11.43;3.50;;;;;;;18.35;68.43;101807.69;7393270;19;20019;-58
2023/06/28 06:13:45;;;;;;;10.85;3.72;;;;;;;18.38;68.50;101812.78;7394257;19;20542;-58
2023/06/28 06:16:12;;;;;;;9.50;3.75;;;;;;;18.39;68.47;101802.91;7393127;19;20055;-58
2023/06/28 06:18:41;;;;;;;12.23;3.60;;;;;;;18.33;68.62;101808.84;7392250;19;20018;-58
2023/06/28 06:21:08;;;;;;;10.60;3.60;;;;;;;18.35;68.82;101805.00;7392425;19;20014;-59
2023/06/28 06:23:35;;;;;;;13.07;3.53;;;;;;;18.40;68.38;101807.31;7393712;19;20022;-53
2023/06/28 06:26:03;;;;;;;11.15;4.15;;;;;;;18.45;68.72;101807.72;7391726;19;20014;-57
2023/06/28 06:28:30;;;;;;;9.35;3.55;;;;;;;18.49;68.49;101817.19;7391018;19;20034;-57
2023/06/28 06:30:57;;;;;;;12.80;3.72;;;;;;;18.58;68.02;101820.88;7391654;19;20021;-56
2023/06/28 06:33:25;;;;;;;10.25;3.40;;;;;;;18.64;67.83;101815.78;7393013;19;20022;-56
2023/06/28 06:35:52;;;;;;;12.27;3.53;;;;;;;18.63;67.75;101806.06;7393409;19;20031;-55
2023/06/28 06:38:23;;;;;;;14.55;3.58;;;;;;;18.65;67.78;101814.81;7391597;19;20018;-56
2023/06/28 06:40:50;;;;;;;12.68;3.05;;;;;;;18.75;67.41;101818.38;7392806;19;20073;-56
2023/06/28 06:43:17;;;;;;;9.10;3.00;;;;;;;18.74;67.28;101811.31;7392231;19;20015;-55
2023/06/28 06:45:45;;;;;;;10.70;3.55;;;;;;;18.83;66.53;101816.84;7392949;19;20029;-55
2023/06/28 06:48:12;;;;;;;10.02;3.03;;;;;;;18.93;65.65;101817.69;7391962;19;20031;-59
2023/06/28 06:50:40;;;;;;;8.15;2.35;;;;;;;19.06;65.18;101812.88;7392516;19;20015;-59
2023/06/28 06:53:08;;;;;;;12.20;2.85;;;;;;;19.00;65.02;101821.47;7390485;19;20018;-59
2023/06/28 06:55:35;;;;;;;9.95;2.78;;;;;;;18.92;64.85;101830.25;7392535;19;20019;-58
2023/06/28 06:58:03;;;;;;;8.40;2.90;;;;;;;18.90;64.68;101829.56;7391088;19;20526;-54
2023/06/28 07:00:30;;;;;;;12.95;2.85;;;;;;;19.05;64.37;101832.66;7389210;19;20021;-58
2023/06/28 07:02:57;;;;;;;10.48;2.92;;;;;;;19.11;63.97;101837.44;7390182;19;20014;-58
2023/06/28 07:05:25;;;;;;;7.55;2.50;;;;;;;19.16;63.86;101837.88;7391156;19;20049;-60
2023/06/28 07:07:54;;;;;;;8.90;2.83;;;;;;;19.22;63.42;101823.88;7391945;19;20158;-59
2023/06/28 07:10:21;;;;;;;11.70;2.30;;;;;;;19.18;62.97;101837.72;7391656;19;20085;-58
2023/06/28 07:12:49;;;;;;;12.63;2.80;;;;;;;19.11;62.66;101840.13;7390167;19;20014;-61
2023/06/28 07:15:16;;;;;;;6.82;1.95;;;;;;;19.13;61.55;101835.47;7390586;19;20022;-59
2023/06/28 07:17:44;;;;;;;9.82;2.28;;;;;;;19.21;61.56;101830.25;7391971;19;20024;-58
2023/06/28 07:20:11;;;;;;;9.43;2.40;;;;;;;19.21;61.03;101837.47;7389870;19;20022;-58
2023/06/28 07:22:39;;;;;;;9.27;2.03;;;;;;;19.19;59.04;101845.66;7390162;19;20018;-59
2023/06/28 07:25:07;;;;;;;9.63;2.28;;;;;;;19.20;58.37;101841.97;7391026;19;20010;-59
2023/06/28 07:27:34;;;;;;;8.20;1.80;;;;;;;19.25;58.85;101841.56;7391032;19;20025;-60
2023/06/28 07:30:02;;;;;;;7.13;2.00;;;;;;;19.21;59.00;101840.13;7389901;19;20035;-60
2023/06/28 07:32:29;;;;;;;8.77;1.88;;;;;;;19.29;58.99;101840.28;7390433;19;20039;-60
2023/06/28 07:34:57;;;;;;;7.43;1.77;;;;;;;19.33;59.05;101838.16;7390136;19;20503;-59
2023/06/28 07:37:24;;;;;;;6.78;1.70;;;;;;;19.35;58.01;101838.88;7391248;19;20775;-59
2023/06/28 07:39:51;;;;;;;7.85;1.60;;;;;;;19.43;57.18;101849.72;7389603;19;20051;-59
2023/06/28 07:42:19;;;;;;;7.88;1.60;;;;;;;19.38;57.31;101847.44;7389592;19;20026;-60
2023/06/28 07:44:47;;;;;;;6.57;1.55;;;;;;;19.43;57.39;101839.00;7390405;19;20023;-60
2023/06/28 07:47:14;;;;;;;8.93;1.73;;;;;;;19.56;57.08;101844.88;7390953;19;20039;-60
2023/06/28 07:49:41;;;;;;;6.05;2.05;;;;;;;19.56;56.57;101836.81;7390243;19;20025;-57
2023/06/28 07:52:09;;;;;;;6.05;1.48;;;;;;;19.55;56.19;101835.13;7389299;19;20028;-58
2023/06/28 07:54:37;;;;;;;11.05;2.15;;;;;;;19.59;56.26;101841.06;7389931;19;20015;-58
2023/06/28 07:57:04;;;;;;;7.53;1.77;;;;;;;19.71;55.84;101839.94;7390493;19;20018;-58
2023/06/28 07:59:31;;;;;;;7.38;1.80;;;;;;;19.73;54.98;101840.66;7389242;19;20024;-59
2023/06/28 08:01:59;;;;;;;4.53;1.25;;;;;;;19.77;54.23;101847.44;7389109;19;20531;-58
2023/06/28 08:04:26;;;;;;;7.97;1.67;;;;;;;19.72;54.07;101841.63;7390616;19;20043;-58
2023/06/28 08:06:53;;;;;;;5.00;1.50;;;;;;;19.69;53.85;101841.94;7390192;19;20022;-58
2023/06/28 08:09:21;;;;;;;5.57;1.30;;;;;;;19.76;53.80;101829.56;7387926;19;20031;-58
2023/06/28 08:11:48;;;;;;;5.45;1.42;;;;;;;19.82;53.56;101841.59;7389215;19;20030;-58
2023/06/28 08:14:15;;;;;;;6.00;1.55;;;;;;;19.84;53.65;101844.97;7393015;19;20043;-58
2023/06/28 08:17:01;;;;;;;5.55;1.80;;;;;;;19.89;53.47;101850.78;7400697;19;20021;-58
2023/06/28 08:19:46;;;;;;;8.30;1.70;;;;;;;20.00;53.33;101847.91;7398767;19;20021;-58
2023/06/28 08:22:32;;;;;;;6.25;1.75;;;;;;;20.07;53.01;101849.00;7393780;19;20099;-59
2023/06/28 08:25:17;;;;;;;5.95;1.70;;;;;;;20.09;52.59;101857.75;7399294;19;20108;-59
2023/06/28 08:28:03;;;;;;;4.35;1.60;;;;;;;20.07;53.21;101853.50;7401778;19;20017;-58
2023/06/28 08:30:48;;;;;;;6.07;1.50;;;;;;;20.30;52.99;101843.22;7400277;19;20045;-59
2023/06/28 08:33:33;;;;;;;8.82;1.83;;;;;;;20.38;52.70;101843.34;7398308;19;20102;-59
2023/06/28 08:36:19;;;;;;;7.43;2.17;;;;;;;20.33;52.97;101840.22;7398113;19;20042;-58
2023/06/28 08:39:04;;;;;;;5.97;1.40;;;;;;;20.23;53.49;101842.16;7396691;19;20038;-58
2023/06/28 08:41:52;;;;;;;8.40;1.80;;;;;;;20.14;53.42;101842.03;7396377;19;20025;-59
2023/06/28 08:44:38;;;;;;;7.28;1.75;;;;;;;20.13;53.19;101836.78;7401274;19;20077;-59
2023/06/28 08:47:29;;;;;;;5.95;1.80;;;;;;;20.19;53.85;101839.75;7399639;19;20352;-59
2023/06/28 08:50:16;;;;;;;6.82;2.05;;;;;;;20.17;53.20;101841.72;7396399;19;20029;-58
2023/06/28 08:53:03;;;;;;;5.97;1.70;;;;;;;20.23;52.97;101842.16;7397688;19;20453;-59
2023/06/28 08:55:48;;;;;;;6.57;1.50;;;;;;;20.28;52.72;101838.00;7397587;19;20025;-59
2023/06/28 08:58:34;;;;;;;4.88;1.70;;;;;;;20.39;53.38;101834.25;7396453;19;20364;-59
2023/06/28 09:01:22;;;;;;;6.22;1.50;;;;;;;20.45;53.02;101841.72;7398421;19;20025;-60
2023/06/28 09:04:07;;;;;;;7.72;1.45;;;;;;;20.58;53.06;101836.84;7394876;19;20112;-59
2023/06/28 09:06:55;;;;;;;6.93;1.70;;;;;;;20.75;51.58;101839.72;7397306;19;20048;-59
2023/06/28 09:09:43;;;;;;;2.92;1.45;;;;;;;20.99;50.95;101836.44;7393623;19;20498;-59
2023/06/28 09:12:28;;;;;;;7.70;1.70;;;;;;;20.89;51.04;101840.03;7395560;19;20021;-59
2023/06/28 09:15:16;;;;;;;6.38;1.42;;;;;;;20.69;51.52;101836.63;7396211;19;20033;-59
2023/06/28 09:18:02;;;;;;;4.35;1.23;;;;;;;20.56;51.80;101830.75;7399129;19;20021;-64
2023/06/28 09:20:54;;;;;;;6.22;2.00;;;;;;;20.47;51.94;101836.19;7391780;19;20046;-59
2023/06/28 09:23:40;;;;;;;3.63;1.50;;;;;;;20.56;51.13;101833.47;7396383;19;20329;-59
2023/06/28 09:26:33;;;;;;;6.20;1.40;;;;;;;20.66;51.09;101836.94;7395305;19;20018;-59
2023/06/28 09:29:18;;;;;;;4.73;1.20;;;;;;;20.56;50.57;101838.00;7395339;19;20123;-59
2023/06/28 09:32:05;;;;;;;4.55;1.30;;;;;;;20.75;50.12;101829.78;7394738;19;20053;-59
2023/06/28 09:34:50;;;;;;;4.70;1.40;;;;;;;20.90;49.45;101828.25;7396521;19;20021;-59
2023/06/28 09:37:37;;;;;;;5.85;1.40;;;;;;;21.00;49.45;101838.09;7395951;19;20128;-57
2023/06/28 09:40:22;;;;;;;5.18;1.30;;;;;;;21.08;49.04;101825.56;7394251;19;20055;-59
2023/06/28 09:43:13;;;;;;;3.95;1.35;;;;;;;21.15;48.88;101834.72;7393717;19;20047;-59
2023/06/28 09:46:11;;;;;;;5.75;1.60;;;;;;;21.16;48.87;101830.16;7395346;19;20025;-58
2023/06/28 09:48:56;;;;;;;8.05;1.58;;;;;;;21.15;49.72;101837.41;7398247;19;20057;-59
2023/06/28 09:51:28;;;;;;;5.53;1.70;;;;;;;21.29;48.70;101827.91;7397530;19;20023;-57
2023/06/28 09:54:13;;;;;;;6.00;1.70;;;;;;;21.52;48.37;101825.59;7396960;19;20385;-57
2023/06/28 09:57:01;;;;;;;6.13;1.30;;;;;;;21.71;47.09;101834.44;7399435;19;20044;-59
2023/06/28 09:59:48;;;;;;;6.55;1.80;;;;;;;21.83;47.11;101834.03;7392687;19;20021;-58
2023/06/28 10:02:34;;;;;;;4.68;1.95;;;;;;;21.68;47.51;101837.47;7397536;19;20025;-58
2023/06/28 10:05:20;;;;;;;8.02;1.98;;;;;;;21.57;47.24;101838.59;7395091;19;20049;-58
2023/06/28 10:08:16;;;;;;;5.20;2.30;;;;;;;21.39;47.79;101836.75;7393704;19;20026;-58
2023/06/28 10:11:12;;;;;;;3.38;1.75;;;;;;;21.45;47.95;101839.84;7398029;19;20522;-58
2023/06/28 10:14:14;;;;;;;4.20;1.67;;;;;;;21.57;47.56;101839.44;7393995;19;20043;-58
2023/06/28 10:17:00;;;;;;;6.30;1.50;;;;;;;21.48;47.49;101848.44;7393509;19;20025;-59
2023/06/28 10:19:46;;;;;;;5.30;1.42;;;;;;;21.50;47.26;101849.16;7391330;19;20080;-58
2023/06/28 10:22:32;;;;;;;2.72;1.23;;;;;;;21.40;46.82;101845.69;7396316;19;20014;-59
2023/06/28 10:25:18;;;;;;;4.68;1.30;;;;;;;21.37;46.45;101846.03;7398182;19;20526;-59
2023/06/28 10:28:04;;;;;;;5.63;1.77;;;;;;;21.48;47.17;101851.13;7396245;19;20018;-60
2023/06/28 10:30:51;;;;;;;4.55;1.35;;;;;;;21.62;47.11;101837.09;7395276;19;20018;-58
2023/06/28 10:33:18;;;;;;;5.75;1.77;;;;;;;21.72;47.46;101841.53;7394014;19;20018;-58
2023/06/28 10:35:45;;;;;;;6.20;1.67;;;;;;;21.84;46.90;101840.25;7393293;19;20014;-59
2023/06/28 10:38:12;;;;;;;6.55;1.90;;;;;;;21.84;47.02;101840.25;7391934;19;20018;-59
2023/06/28 10:40:39;;;;;;;3.55;1.80;;;;;;;21.87;47.33;101834.56;7373577;19;20007;-59
2023/06/28 10:43:19;;;;;;;5.65;1.90;;;;;;;21.86;47.73;101839.09;7383346;19;20019;-58
2023/06/28 10:45:49;;;;;;;6.38;2.00;;;;;;;21.76;47.87;101846.47;7396966;19;20022;-59
2023/06/28 10:48:23;;;;;;;4.22;1.75;;;;;;;21.85;47.84;101844.66;7392897;19;20018;-59
2023/06/28 10:50:51;;;;;;;5.35;1.70;;;;;;;21.87;48.16;101839.94;7376912;19;20010;-59
2023/06/28 10:53:22;;;;;;;6.43;2.00;;;;;;;21.75;48.22;101841.19;7395832;19;20043;-59
2023/06/28 10:56:08;;;;;;;5.85;1.70;;;;;;;21.58;48.40;101842.97;7377800;19;20010;-59
2023/06/28 10:58:39;;;;;;;5.95;1.67;;;;;;;21.48;49.21;101844.91;7392495;19;20014;-59
2023/06/28 11:01:08;;;;;;;7.50;1.95;;;;;;;21.61;48.99;101839.97;7392128;19;20040;-59
2023/06/28 11:03:44;;;;;;;3.95;1.88;;;;;;;21.74;49.25;101843.06;7379163;19;20035;-58
2023/06/28 11:06:12;;;;;;;5.25;2.03;;;;;;;21.75;49.21;101844.78;7394057;19;20022;-58
2023/06/28 11:08:45;;;;;;;5.10;1.70;;;;;;;22.04;48.28;101840.88;7395221;19;20029;-57
2023/06/28 11:11:35;;;;;;;5.60;1.58;;;;;;;22.42;47.05;101831.44;7391135;19;20646;-58
2023/06/28 11:14:25;;;;;;;5.38;1.58;;;;;;;22.49;46.71;101832.47;7394138;19;20397;-59
2023/06/28 11:17:01;;;;;;;7.97;1.75;;;;;;;22.50;47.19;101826.03;7390093;19;20015;-59
2023/06/28 11:19:30;;;;;;;4.20;1.70;;;;;;;22.65;46.72;101825.41;7389675;19;20011;-59
2023/06/28 11:21:58;;;;;;;4.30;1.80;;;;;;;22.75;46.41;101828.81;7391667;19;20018;-59
2023/06/28 11:24:37;;;;;;;6.13;1.75;;;;;;;22.75;46.10;101820.69;7391478;19;20102;-59
2023/06/28 11:27:16;;;;;;;6.70;1.63;;;;;;;22.74;46.22;101829.78;7390568;19;20559;-58
2023/06/28 11:30:00;;;;;;;6.78;1.83;;;;;;;22.58;46.09;101820.66;7391643;19;20019;-59
2023/06/28 11:32:33;;;;;;;6.72;1.80;;;;;;;22.51;47.32;101818.78;7390106;19;20011;-59
2023/06/28 11:35:01;;;;;;;6.90;2.17;;;;;;;22.35;48.20;101820.44;7395642;19;20035;-59
2023/06/28 11:38:46;;;;;;;5.53;2.08;;;;;;;22.21;48.11;101825.59;7425282;19;20375;-60
2023/06/28 11:41:34;;;;;;;4.45;2.20;;;;;;;22.23;48.21;101816.34;7427306;19;20030;-59
2023/06/28 11:44:05;;;;;;;5.18;1.77;;;;;;;22.43;47.70;101810.66;7431275;19;20022;-59